createdAt,value
2018-03-26T00:01:42.219Z,59.10
2018-03-26T00:06:25.849Z,57.23
2018-03-26T00:11:09.204Z,66.03
2018-03-26T00:15:52.570Z,57.23
2018-03-26T00:20:35.941Z,59.97
2018-03-26T00:25:19.550Z,56.97
2018-03-26T00:30:02.850Z,59.23
2018-03-26T00:34:46.232Z,58.53
2018-03-26T00:39:29.546Z,55.20
2018-03-26T00:44:12.910Z,62.27
2018-03-26T00:48:56.232Z,56.43
2018-03-26T00:53:44.592Z,60.47
2018-03-26T00:58:28.000Z,63.47
2018-03-26T01:03:11.326Z,59.67
2018-03-26T01:07:54.673Z,61.50
2018-03-26T01:12:38.043Z,63.17
2018-03-26T01:17:21.388Z,60.37
2018-03-26T01:22:04.704Z,55.37
2018-03-26T01:26:48.273Z,59.10
2018-03-26T01:31:31.586Z,56.10
2018-03-26T01:36:14.931Z,59.37
2018-03-26T01:40:58.320Z,55.13
2018-03-26T01:45:41.623Z,61.83
2018-03-26T01:50:25.227Z,63.27
2018-03-26T01:55:08.518Z,56.37
2018-03-26T01:59:51.857Z,57.93
2018-03-26T02:04:35.195Z,57.53
2018-03-26T02:09:18.563Z,61.37
2018-03-26T02:14:01.902Z,59.23
2018-03-26T02:18:45.472Z,52.70
2018-03-26T02:23:28.798Z,60.30
2018-03-26T02:28:12.150Z,62.67
2018-03-26T02:32:56.260Z,52.60
2018-03-26T02:37:39.629Z,59.40
2018-03-26T02:42:23.207Z,64.50
2018-03-26T02:47:07.263Z,63.77
2018-03-26T02:51:51.345Z,57.67
2018-03-26T02:56:34.689Z,59.40
2018-03-26T03:01:18.255Z,59.83
2018-03-26T03:06:01.586Z,51.67
2018-03-26T03:10:44.964Z,56.50
2018-03-26T03:15:28.307Z,57.67
2018-03-26T03:20:11.951Z,60.27
2018-03-26T03:24:55.420Z,55.50
2018-03-26T03:29:38.787Z,60.67
2018-03-26T03:34:22.103Z,66.60
2018-03-26T03:39:06.223Z,68.53
2018-03-26T03:43:49.562Z,64.30
2018-03-26T03:48:32.918Z,66.97
2018-03-26T03:53:16.275Z,63.50
2018-03-26T03:57:59.695Z,59.00
2018-03-26T04:02:43.040Z,61.67
2018-03-26T04:07:26.342Z,59.30
2018-03-26T04:12:09.719Z,65.37
2018-03-26T04:16:53.097Z,58.57
2018-03-26T04:21:37.215Z,62.80
2018-03-26T04:26:20.641Z,65.53
2018-03-26T04:31:03.940Z,63.30
2018-03-26T04:35:48.029Z,63.27
2018-03-26T04:40:31.390Z,71.33
2018-03-26T04:45:14.814Z,68.03
2018-03-26T04:49:58.173Z,71.27
2018-03-26T04:54:41.658Z,60.83
2018-03-26T04:59:25.757Z,66.10
2018-03-26T05:04:09.166Z,69.17
2018-03-26T05:08:53.293Z,73.73
2018-03-26T05:13:36.637Z,71.80
2018-03-26T05:18:19.958Z,70.23
2018-03-26T05:23:03.870Z,70.67
2018-03-26T05:27:47.266Z,67.53
2018-03-26T05:32:30.615Z,69.77
2018-03-26T05:37:13.963Z,60.97
2018-03-26T05:41:58.046Z,67.30
2018-03-26T05:46:41.383Z,69.00
2018-03-26T05:51:24.717Z,64.43
2018-03-26T05:56:08.816Z,65.33
2018-03-26T06:00:52.138Z,71.07
2018-03-26T06:05:35.483Z,67.80
2018-03-26T06:10:18.812Z,77.27
2018-03-26T06:15:02.142Z,67.17
2018-03-26T06:19:45.455Z,66.93
2018-03-26T06:24:29.557Z,64.27
2018-03-26T06:29:12.914Z,68.23
2018-03-26T06:33:56.295Z,66.50
2018-03-26T06:38:44.134Z,64.90
2018-03-26T06:43:29.260Z,69.70
2018-03-26T06:48:12.678Z,66.73
2018-03-26T06:52:56.960Z,64.70
2018-03-26T06:57:40.404Z,66.83
2018-03-26T07:02:23.792Z,57.47
2018-03-26T07:07:07.132Z,59.87
2018-03-26T07:11:50.545Z,59.73
2018-03-26T07:16:33.890Z,59.40
2018-03-26T07:21:17.379Z,59.37
2018-03-26T07:26:01.489Z,61.33
2018-03-26T07:30:45.034Z,61.77
2018-03-26T07:35:28.445Z,63.27
2018-03-26T07:40:12.558Z,55.97
2018-03-26T07:44:55.933Z,61.60
2018-03-26T07:49:40.028Z,57.03
2018-03-26T07:54:23.435Z,63.57
2018-03-26T07:59:07.548Z,61.83
2018-03-26T08:03:50.951Z,60.20
2018-03-26T08:08:35.047Z,55.33
2018-03-26T08:13:18.570Z,60.57
2018-03-26T08:18:01.915Z,57.37
2018-03-26T08:22:45.309Z,54.90
2018-03-26T08:27:28.681Z,59.00
2018-03-26T08:32:12.110Z,55.37
2018-03-26T08:36:56.492Z,57.63
2018-03-26T08:41:39.863Z,56.57
2018-03-26T08:46:23.207Z,54.90
2018-03-26T08:51:06.546Z,56.93
2018-03-26T08:55:50.240Z,51.90
2018-03-26T09:00:34.416Z,50.57
2018-03-26T09:05:18.528Z,52.03
2018-03-26T09:10:01.977Z,53.27
2018-03-26T09:14:45.383Z,46.20
2018-03-26T09:19:28.708Z,46.60
2018-03-26T09:24:12.059Z,53.47
2018-03-26T09:28:55.412Z,44.40
2018-03-26T09:33:38.784Z,43.10
2018-03-26T09:38:22.227Z,43.37
2018-03-26T09:43:05.652Z,37.57
2018-03-26T09:47:49.849Z,36.97
2018-03-26T09:52:34.012Z,33.40
2018-03-26T09:57:18.116Z,33.90
2018-03-26T10:02:01.472Z,30.97
2018-03-26T10:06:44.855Z,33.33
2018-03-26T10:11:28.231Z,29.80
2018-03-26T10:16:11.574Z,29.77
2018-03-26T10:20:55.077Z,33.40
2018-03-26T10:25:39.192Z,30.70
2018-03-26T10:30:22.601Z,33.07
2018-03-26T10:35:06.025Z,31.10
2018-03-26T10:39:50.127Z,31.53
2018-03-26T10:44:33.482Z,33.93
2018-03-26T10:49:16.819Z,31.40
2018-03-26T10:54:00.196Z,35.20
2018-03-26T10:58:43.560Z,35.00
2018-03-26T11:03:27.000Z,34.03
2018-03-26T11:08:10.486Z,34.17
2018-03-26T11:12:53.844Z,33.03
2018-03-26T11:17:37.168Z,36.37
2018-03-26T11:22:20.586Z,33.83
2018-03-26T11:27:03.924Z,31.27
2018-03-26T11:31:47.605Z,30.50
2018-03-26T11:36:31.135Z,30.77
2018-03-26T11:41:14.512Z,33.30
2018-03-26T11:45:57.891Z,29.90
2018-03-26T11:50:41.240Z,31.77
2018-03-26T11:55:24.563Z,30.87
2018-03-26T12:00:07.904Z,32.80
2018-03-26T12:04:51.240Z,33.17
2018-03-26T12:09:34.595Z,33.03
2018-03-26T12:14:17.936Z,34.97
2018-03-26T12:19:01.306Z,36.23
2018-03-26T12:23:56.486Z,32.50
2018-03-26T12:28:51.585Z,33.13
2018-03-26T12:33:40.803Z,31.70
2018-03-26T12:38:24.156Z,32.03
2018-03-26T12:43:07.551Z,32.80
2018-03-26T12:47:51.709Z,33.60
2018-03-26T12:52:46.898Z,33.87
2018-03-26T12:57:41.999Z,31.07
2018-03-26T13:02:28.143Z,34.50
2018-03-26T13:07:11.516Z,38.43
2018-03-26T13:11:54.864Z,36.53
2018-03-26T13:16:38.393Z,36.30
2018-03-26T13:21:21.756Z,40.83
2018-03-26T13:26:05.178Z,39.30
2018-03-26T13:30:48.576Z,39.47
2018-03-26T13:35:32.042Z,36.40
2018-03-26T13:40:16.188Z,42.17
2018-03-26T13:45:00.352Z,39.73
2018-03-26T13:49:44.455Z,41.13
2018-03-26T13:54:27.863Z,42.97
2018-03-26T13:59:11.288Z,39.20
2018-03-26T14:03:54.694Z,39.30
2018-03-26T14:08:49.786Z,42.70
2018-03-26T14:13:42.009Z,43.87
2018-03-26T14:18:25.469Z,42.10
2018-03-26T14:23:09.685Z,46.77
2018-03-26T14:27:53.229Z,49.37
2018-03-26T14:32:36.596Z,56.97
2018-03-26T14:37:20.037Z,51.73
2018-03-26T14:42:04.127Z,52.10
2018-03-26T14:46:48.800Z,60.30
2018-03-26T14:51:32.214Z,60.53
2018-03-26T14:56:16.403Z,57.73
2018-03-26T15:00:59.810Z,64.13
2018-03-26T15:05:43.966Z,65.43
2018-03-26T15:10:28.153Z,58.40
2018-03-26T15:15:11.551Z,61.57
2018-03-26T15:19:54.916Z,51.00
2018-03-26T15:24:38.349Z,46.70
2018-03-26T15:29:22.593Z,39.90
2018-03-26T15:34:06.222Z,42.27
2018-03-26T15:38:49.592Z,39.83
2018-03-26T15:43:32.965Z,38.33
2018-03-26T15:48:16.448Z,40.03
2018-03-26T15:52:59.734Z,37.63
2018-03-26T15:57:43.064Z,41.07
2018-03-26T16:02:32.267Z,43.90
2018-03-26T16:07:15.872Z,45.17
2018-03-26T16:11:59.209Z,52.90
2018-03-26T16:16:42.648Z,50.90
2018-03-26T16:21:25.960Z,52.13
2018-03-26T16:26:09.306Z,56.20
2018-03-26T16:30:52.655Z,54.37
2018-03-26T16:35:36.175Z,55.27
2018-03-26T16:40:19.587Z,55.10
2018-03-26T16:45:02.989Z,62.60
2018-03-26T16:49:46.375Z,56.83
2018-03-26T16:54:29.727Z,60.23
2018-03-26T16:59:13.110Z,54.10
2018-03-26T17:03:56.465Z,56.13
2018-03-26T17:08:40.580Z,53.73
2018-03-26T17:13:23.995Z,59.60
2018-03-26T17:18:07.371Z,54.73
2018-03-26T17:22:50.698Z,57.07
2018-03-26T17:27:34.223Z,54.93
2018-03-26T17:32:18.463Z,58.90
2018-03-26T17:37:02.011Z,53.47
2018-03-26T17:41:46.601Z,59.00
2018-03-26T17:46:29.932Z,59.83
2018-03-26T17:51:14.089Z,56.30
2018-03-26T17:55:57.475Z,47.13
2018-03-26T18:00:40.830Z,48.30
2018-03-26T18:05:24.177Z,48.77
2018-03-26T18:10:07.656Z,49.43
2018-03-26T18:14:51.860Z,45.33
2018-03-26T18:19:35.472Z,44.90
2018-03-26T18:24:19.579Z,49.13
2018-03-26T18:29:03.048Z,46.70
2018-03-26T18:33:46.430Z,49.40
2018-03-26T18:38:29.824Z,57.85
2018-03-26T18:43:13.224Z,48.73
2018-03-26T18:47:57.345Z,48.17
2018-03-26T18:52:40.778Z,43.43
2018-03-26T19:12:05.624Z,34.27
2018-03-26T19:16:49.080Z,36.60
2018-03-26T19:21:32.492Z,39.10
2018-03-26T19:26:15.824Z,34.17
2018-03-26T19:31:00.090Z,34.47
2018-03-26T19:35:43.662Z,32.37
2018-03-26T19:40:27.001Z,34.80
2018-03-26T19:45:10.341Z,33.80
2018-03-26T19:49:54.494Z,34.37
2018-03-26T19:54:37.984Z,37.20
2018-03-26T19:59:22.099Z,32.67
2018-03-26T20:04:05.738Z,37.80
2018-03-26T20:08:51.316Z,34.17
2018-03-26T20:13:35.675Z,34.10
2018-03-26T20:18:20.853Z,32.60
2018-03-26T20:23:15.462Z,28.50
2018-03-26T20:28:23.886Z,32.43
2018-03-26T20:33:08.338Z,30.40
2018-03-26T20:37:51.846Z,30.33
2018-03-26T20:42:35.956Z,29.70
2018-03-26T20:47:20.178Z,27.03
2018-03-26T20:52:03.728Z,32.63
2018-03-26T20:56:47.904Z,30.93
2018-03-26T21:01:32.046Z,29.23
2018-03-26T21:06:15.787Z,28.53
2018-03-26T21:10:59.977Z,30.67
2018-03-26T21:15:43.907Z,26.57
2018-03-26T21:20:28.569Z,27.47
2018-03-26T21:25:11.998Z,28.40
2018-03-26T21:29:56.181Z,26.57
2018-03-26T21:34:40.255Z,25.60
2018-03-26T21:39:24.289Z,27.77
2018-03-26T21:44:08.082Z,25.03
2018-03-26T21:48:53.375Z,26.00
2018-03-26T21:53:37.137Z,30.67
2018-03-26T21:58:20.861Z,28.90
2018-03-26T22:03:05.774Z,31.33
2018-03-26T22:07:50.581Z,30.23
2018-03-26T22:12:34.134Z,31.73
2018-03-26T22:17:21.751Z,28.03
2018-03-26T22:22:05.088Z,32.93
2018-03-26T22:26:50.739Z,35.13
2018-03-26T22:31:34.902Z,30.93
2018-03-26T22:36:18.340Z,34.67
2018-03-26T22:41:02.017Z,31.23
2018-03-26T22:45:45.954Z,31.30
2018-03-26T22:50:31.114Z,31.27
2018-03-26T22:55:14.527Z,31.37
2018-03-26T22:59:58.576Z,35.07
2018-03-26T23:04:45.894Z,36.60
2018-03-26T23:09:30.464Z,39.03
2018-03-26T23:14:14.247Z,40.80
2018-03-26T23:18:57.656Z,49.37
2018-03-26T23:23:40.978Z,44.73
2018-03-26T23:28:24.607Z,47.53
2018-03-26T23:33:07.988Z,44.07
2018-03-26T23:37:51.351Z,47.40
2018-03-26T23:42:34.732Z,50.43
2018-03-26T23:47:18.832Z,45.63
2018-03-26T23:52:02.221Z,48.13
2018-03-26T23:56:45.540Z,46.00
